createdAt,value
2022-11-26T00:00:26.246Z,955.95
2022-11-26T00:01:25.215Z,956.00
2022-11-26T00:02:25.279Z,955.93
2022-11-26T00:03:25.238Z,955.99
2022-11-26T00:04:25.154Z,955.98
2022-11-26T00:05:25.189Z,955.97
2022-11-26T00:06:25.151Z,955.98
2022-11-26T00:07:25.152Z,956.01
2022-11-26T00:08:25.128Z,956.01
2022-11-26T00:09:25.106Z,955.99
2022-11-26T00:10:25.105Z,956.02
2022-11-26T00:11:25.117Z,956.00
2022-11-26T00:12:25.065Z,956.03
2022-11-26T00:13:25.066Z,956.02
2022-11-26T00:14:25.041Z,956.02
2022-11-26T00:15:25.037Z,956.04
2022-11-26T00:16:25.086Z,956.09
2022-11-26T00:17:25.025Z,956.04
2022-11-26T00:18:25.019Z,956.12
2022-11-26T00:19:24.991Z,956.10
2022-11-26T00:20:24.976Z,956.08
2022-11-26T00:21:24.987Z,956.10
2022-11-26T00:22:24.955Z,956.13
2022-11-26T00:23:24.964Z,956.10
2022-11-26T00:24:24.969Z,956.09
2022-11-26T00:25:24.940Z,956.12
2022-11-26T00:26:24.914Z,956.14
2022-11-26T00:27:24.916Z,956.16
2022-11-26T00:28:24.886Z,956.21
2022-11-26T00:29:24.890Z,956.16
2022-11-26T00:30:24.878Z,956.19
2022-11-26T00:31:24.966Z,956.19
2022-11-26T00:32:24.956Z,956.20
2022-11-26T00:33:24.831Z,956.20
2022-11-26T00:34:24.812Z,956.28
2022-11-26T00:35:24.824Z,956.25
2022-11-26T00:36:24.791Z,956.26
2022-11-26T00:37:24.786Z,956.24
2022-11-26T00:38:24.793Z,956.34
2022-11-26T00:39:24.765Z,956.31
2022-11-26T00:40:24.765Z,956.33
2022-11-26T00:41:24.771Z,956.33
2022-11-26T00:42:24.742Z,956.36
2022-11-26T00:43:24.717Z,956.34
2022-11-26T00:44:24.701Z,956.38
2022-11-26T00:45:24.754Z,956.30
2022-11-26T00:46:24.733Z,956.35
2022-11-26T00:47:24.688Z,956.40
2022-11-26T00:48:24.658Z,956.37
2022-11-26T00:49:24.654Z,956.38
2022-11-26T00:50:24.632Z,956.36
2022-11-26T00:51:24.649Z,956.46
2022-11-26T00:52:24.612Z,956.47
2022-11-26T00:53:24.616Z,956.46
2022-11-26T00:54:24.585Z,956.49
2022-11-26T00:55:24.581Z,956.53
2022-11-26T00:56:24.604Z,956.49
2022-11-26T00:57:24.562Z,956.51
2022-11-26T00:58:24.544Z,956.53
2022-11-26T00:59:24.561Z,956.49
2022-11-26T01:00:24.520Z,956.53
2022-11-26T01:01:24.656Z,956.54
2022-11-26T01:02:24.618Z,956.57
2022-11-26T01:03:24.491Z,956.53
2022-11-26T01:04:24.511Z,956.56
2022-11-26T01:05:24.470Z,956.59
2022-11-26T01:06:24.454Z,956.62
2022-11-26T01:07:24.482Z,956.57
2022-11-26T01:08:24.436Z,956.60
2022-11-26T01:09:24.441Z,956.59
2022-11-26T01:10:24.438Z,956.63
2022-11-26T01:11:24.400Z,956.65
2022-11-26T01:12:24.400Z,956.62
2022-11-26T01:13:24.396Z,956.68
2022-11-26T01:14:24.379Z,956.64
2022-11-26T01:15:24.356Z,956.69
2022-11-26T01:16:24.398Z,956.69
2022-11-26T01:17:24.333Z,956.68
2022-11-26T01:18:24.321Z,956.69
2022-11-26T01:19:24.330Z,956.63
2022-11-26T01:20:25.591Z,956.66
2022-11-26T01:21:24.308Z,956.68
2022-11-26T01:22:24.288Z,956.69
2022-11-26T01:23:24.280Z,956.77
2022-11-26T01:24:24.274Z,956.71
2022-11-26T01:25:24.236Z,956.74
2022-11-26T01:26:24.230Z,956.77
2022-11-26T01:27:24.215Z,956.76
2022-11-26T01:28:24.225Z,956.78
2022-11-26T01:29:25.302Z,956.78
2022-11-26T01:30:24.180Z,956.91
2022-11-26T01:31:24.214Z,956.78
2022-11-26T01:32:29.274Z,956.81
2022-11-26T01:33:28.112Z,956.81
2022-11-26T01:34:24.154Z,956.94
2022-11-26T01:35:24.143Z,956.91
2022-11-26T01:36:24.143Z,956.91
2022-11-26T01:37:24.100Z,956.94
2022-11-26T01:38:24.094Z,956.93
2022-11-26T01:39:24.093Z,956.97
2022-11-26T01:40:24.084Z,956.93
2022-11-26T01:41:24.055Z,956.93
2022-11-26T01:42:24.048Z,957.01
2022-11-26T01:43:24.030Z,956.93
2022-11-26T01:44:24.062Z,956.97
2022-11-26T01:45:24.076Z,956.97
2022-11-26T01:46:24.012Z,957.00
2022-11-26T01:47:23.988Z,957.02
2022-11-26T01:48:23.979Z,957.03
2022-11-26T01:49:23.989Z,957.03
2022-11-26T01:50:23.955Z,957.07
2022-11-26T01:51:23.941Z,957.05
2022-11-26T01:52:23.967Z,957.08
2022-11-26T01:53:23.937Z,957.05
2022-11-26T01:54:23.911Z,957.07
2022-11-26T01:55:23.894Z,957.12
2022-11-26T01:56:23.889Z,957.10
2022-11-26T01:57:23.890Z,957.09
2022-11-26T01:58:23.879Z,957.10
2022-11-26T01:59:23.850Z,957.07
2022-11-26T02:00:23.860Z,957.09
2022-11-26T02:01:23.985Z,957.05
2022-11-26T02:02:23.890Z,957.10
2022-11-26T02:03:23.826Z,957.05
2022-11-26T02:04:23.810Z,957.11
2022-11-26T02:05:23.802Z,957.13
2022-11-26T02:06:23.770Z,957.06
2022-11-26T02:07:23.828Z,957.11
2022-11-26T02:08:23.750Z,957.14
2022-11-26T02:09:23.735Z,957.07
2022-11-26T02:10:23.772Z,957.08
2022-11-26T02:11:23.710Z,957.15
2022-11-26T02:12:23.729Z,957.12
2022-11-26T02:13:23.708Z,957.07
2022-11-26T02:14:23.682Z,957.13
2022-11-26T02:15:23.667Z,957.06
2022-11-26T02:16:23.743Z,957.08
2022-11-26T02:17:23.652Z,957.11
2022-11-26T02:18:23.659Z,957.10
2022-11-26T02:19:23.636Z,957.12
2022-11-26T02:20:23.622Z,957.08
2022-11-26T02:21:23.600Z,957.13
2022-11-26T02:22:23.614Z,957.11
2022-11-26T02:23:23.577Z,957.12
2022-11-26T02:24:23.588Z,957.15
2022-11-26T02:25:23.554Z,957.20
2022-11-26T02:26:23.563Z,957.15
2022-11-26T02:27:23.531Z,957.19
2022-11-26T02:28:23.553Z,957.21
2022-11-26T02:29:23.529Z,957.19
2022-11-26T02:30:23.504Z,957.22
2022-11-26T02:31:30.776Z,957.22
2022-11-26T02:32:23.492Z,957.20
2022-11-26T02:33:23.470Z,957.22
2022-11-26T02:34:23.494Z,957.28
2022-11-26T02:35:23.442Z,957.28
2022-11-26T02:36:23.462Z,957.30
2022-11-26T02:37:23.418Z,957.31
2022-11-26T02:38:23.432Z,957.34
2022-11-26T02:39:23.393Z,957.33
2022-11-26T02:40:23.393Z,957.28
2022-11-26T02:41:23.809Z,957.30
2022-11-26T02:42:23.420Z,957.32
2022-11-26T02:43:23.486Z,957.32
2022-11-26T02:44:23.370Z,957.40
2022-11-26T02:45:23.421Z,957.39
2022-11-26T02:46:23.362Z,957.44
2022-11-26T02:47:23.344Z,957.43
2022-11-26T02:48:23.310Z,957.45
2022-11-26T02:49:23.293Z,957.46
2022-11-26T02:50:23.273Z,957.43
2022-11-26T02:51:23.259Z,957.45
2022-11-26T02:52:23.251Z,957.47
2022-11-26T02:53:23.252Z,957.50
2022-11-26T02:54:23.266Z,957.48
2022-11-26T02:55:23.212Z,957.49
2022-11-26T02:56:23.205Z,957.53
2022-11-26T02:57:23.189Z,957.49
2022-11-26T02:58:23.184Z,957.55
2022-11-26T02:59:23.206Z,957.49
2022-11-26T03:00:23.161Z,957.49
2022-11-26T03:01:23.175Z,957.49
2022-11-26T03:02:23.157Z,957.51
2022-11-26T03:03:23.161Z,957.50
2022-11-26T03:04:23.202Z,957.50
2022-11-26T03:05:23.111Z,957.51
2022-11-26T03:06:23.109Z,957.50
2022-11-26T03:07:23.151Z,957.56
2022-11-26T03:08:23.090Z,957.55
2022-11-26T03:09:23.053Z,957.57
2022-11-26T03:10:23.310Z,957.58
2022-11-26T03:11:23.130Z,957.62
2022-11-26T03:12:23.044Z,957.60
2022-11-26T03:13:23.024Z,957.64
2022-11-26T03:14:23.000Z,957.59
2022-11-26T03:15:22.980Z,957.62
2022-11-26T03:16:23.058Z,957.58
2022-11-26T03:17:22.974Z,957.65
2022-11-26T03:18:22.968Z,957.66
2022-11-26T03:19:22.954Z,957.62
2022-11-26T03:20:22.931Z,957.60
2022-11-26T03:21:22.918Z,957.64
2022-11-26T03:22:22.909Z,957.64
2022-11-26T03:23:22.933Z,957.62
2022-11-26T03:24:22.887Z,957.64
2022-11-26T03:25:22.868Z,957.66
2022-11-26T03:26:22.865Z,957.71
2022-11-26T03:27:22.849Z,957.69
2022-11-26T03:28:22.872Z,957.73
2022-11-26T03:29:22.839Z,957.71
2022-11-26T03:30:22.818Z,957.73
2022-11-26T03:31:22.858Z,957.71
2022-11-26T03:32:22.796Z,957.77
2022-11-26T03:33:22.802Z,957.80
2022-11-26T03:34:22.773Z,957.84
2022-11-26T03:35:22.774Z,957.82
2022-11-26T03:36:22.748Z,957.84
2022-11-26T03:37:22.734Z,957.83
2022-11-26T03:38:22.751Z,957.85
2022-11-26T03:39:22.713Z,957.85
2022-11-26T03:40:22.705Z,957.88
2022-11-26T03:41:22.702Z,957.88
2022-11-26T03:42:22.687Z,957.90
2022-11-26T03:43:22.689Z,957.95
2022-11-26T03:44:22.659Z,957.86
2022-11-26T03:45:22.656Z,957.92
2022-11-26T03:46:22.694Z,957.95
2022-11-26T03:47:22.638Z,957.99
2022-11-26T03:48:22.616Z,958.02
2022-11-26T03:49:22.625Z,958.07
2022-11-26T03:50:22.590Z,958.03
2022-11-26T03:51:22.593Z,958.07
2022-11-26T03:52:22.571Z,958.07
2022-11-26T03:53:22.566Z,957.99
2022-11-26T03:54:22.567Z,958.05
2022-11-26T03:55:22.537Z,958.09
2022-11-26T03:56:22.523Z,958.04
2022-11-26T03:57:22.510Z,958.02
2022-11-26T03:58:22.507Z,958.07
2022-11-26T03:59:22.552Z,957.99
2022-11-26T04:00:22.480Z,958.02
2022-11-26T04:01:22.509Z,958.00
2022-11-26T04:02:22.473Z,958.05
2022-11-26T04:03:22.504Z,958.08
2022-11-26T04:04:22.458Z,958.13
2022-11-26T04:05:22.437Z,958.09
2022-11-26T04:06:22.413Z,958.05
2022-11-26T04:07:22.685Z,958.05
2022-11-26T04:08:22.406Z,958.08
2022-11-26T04:09:22.374Z,958.12
2022-11-26T04:10:22.395Z,958.10
2022-11-26T04:11:22.346Z,958.16
2022-11-26T04:12:22.342Z,958.18
2022-11-26T04:13:22.352Z,958.19
2022-11-26T04:14:22.322Z,958.20
2022-11-26T04:15:22.307Z,958.17
2022-11-26T04:16:22.393Z,958.17
2022-11-26T04:17:22.280Z,958.20
2022-11-26T04:18:22.295Z,958.18
2022-11-26T04:19:22.257Z,958.19
2022-11-26T04:20:22.253Z,958.22
2022-11-26T04:21:22.233Z,958.26
2022-11-26T04:22:22.243Z,958.26
2022-11-26T04:23:22.250Z,958.25
2022-11-26T04:24:22.204Z,958.25
2022-11-26T04:25:22.187Z,958.30
2022-11-26T04:26:22.180Z,958.28
2022-11-26T04:27:22.166Z,958.27
2022-11-26T04:28:22.193Z,958.33
2022-11-26T04:29:22.146Z,958.34
2022-11-26T04:30:22.134Z,958.34
2022-11-26T04:31:22.180Z,958.34
2022-11-26T04:32:22.117Z,958.35
2022-11-26T04:33:22.119Z,958.40
2022-11-26T04:34:22.126Z,958.33
2022-11-26T04:35:22.074Z,958.41
2022-11-26T04:36:22.078Z,958.43
2022-11-26T04:37:22.053Z,958.46
2022-11-26T04:38:25.681Z,958.48
2022-11-26T04:39:22.164Z,958.43
2022-11-26T04:40:22.036Z,958.53
2022-11-26T04:41:22.009Z,958.46
2022-11-26T04:42:22.011Z,958.55
2022-11-26T04:43:21.984Z,958.56
2022-11-26T04:44:21.983Z,958.56
2022-11-26T04:45:21.984Z,958.61
2022-11-26T04:46:22.088Z,958.57
2022-11-26T04:47:22.075Z,958.55
2022-11-26T04:48:21.933Z,958.61
2022-11-26T04:49:21.935Z,958.67
2022-11-26T04:50:21.912Z,958.69
2022-11-26T04:51:22.929Z,958.75
2022-11-26T04:52:21.902Z,958.73
2022-11-26T04:53:21.908Z,958.71
2022-11-26T04:54:21.885Z,958.83
2022-11-26T04:55:21.868Z,958.76
2022-11-26T04:56:21.841Z,958.75
2022-11-26T04:57:21.825Z,958.77
2022-11-26T04:58:21.833Z,958.76
2022-11-26T04:59:21.822Z,958.80
2022-11-26T05:00:21.795Z,958.78
2022-11-26T05:01:21.828Z,958.80
2022-11-26T05:02:21.865Z,958.81
2022-11-26T05:03:21.759Z,958.79
2022-11-26T05:04:21.781Z,958.85
2022-11-26T05:05:21.756Z,958.78
2022-11-26T05:06:21.731Z,958.82
2022-11-26T05:07:21.812Z,958.80
2022-11-26T05:08:21.706Z,958.84
2022-11-26T05:09:21.712Z,958.82
2022-11-26T05:10:21.726Z,958.83
2022-11-26T05:11:21.686Z,958.86
2022-11-26T05:12:21.668Z,958.98
2022-11-26T05:13:21.648Z,958.84
2022-11-26T05:14:21.658Z,958.90
2022-11-26T05:15:21.623Z,958.95
2022-11-26T05:16:21.681Z,958.85
2022-11-26T05:17:21.617Z,958.96
2022-11-26T05:18:21.619Z,958.99
2022-11-26T05:19:21.581Z,958.97
2022-11-26T05:20:21.593Z,958.96
2022-11-26T05:21:21.556Z,959.01
2022-11-26T05:22:21.562Z,959.01
2022-11-26T05:23:21.535Z,959.02
2022-11-26T05:24:21.527Z,958.96
2022-11-26T05:25:21.531Z,958.95
2022-11-26T05:26:21.509Z,958.92
2022-11-26T05:27:21.506Z,958.92
2022-11-26T05:28:21.521Z,958.92
2022-11-26T05:29:21.466Z,958.93
2022-11-26T05:30:21.460Z,959.03
2022-11-26T05:31:21.516Z,959.03
2022-11-26T05:32:21.437Z,959.01
2022-11-26T05:33:21.419Z,959.03
2022-11-26T05:34:21.430Z,959.07
2022-11-26T05:35:21.416Z,959.08
2022-11-26T05:36:21.386Z,959.09
2022-11-26T05:37:21.379Z,959.09
2022-11-26T05:38:21.365Z,959.10
2022-11-26T05:39:21.357Z,959.12
2022-11-26T05:40:21.372Z,959.06
2022-11-26T05:41:21.336Z,959.14
2022-11-26T05:42:21.318Z,959.14
2022-11-26T05:43:21.351Z,959.21
2022-11-26T05:44:21.368Z,959.19
2022-11-26T05:45:21.334Z,959.21
2022-11-26T05:46:21.407Z,959.15
2022-11-26T05:47:21.266Z,959.23
2022-11-26T05:48:21.283Z,959.20
2022-11-26T05:49:21.256Z,959.26
2022-11-26T05:50:21.232Z,959.24
2022-11-26T05:51:21.219Z,959.27
2022-11-26T05:52:21.233Z,959.24
2022-11-26T05:53:21.196Z,959.26
2022-11-26T05:54:21.224Z,959.30
2022-11-26T05:55:21.172Z,959.26
2022-11-26T05:56:21.176Z,959.24
2022-11-26T05:57:21.153Z,959.26
2022-11-26T05:58:21.148Z,959.25
2022-11-26T05:59:21.155Z,959.28
2022-11-26T06:00:21.134Z,959.30
2022-11-26T06:01:21.110Z,959.29
2022-11-26T06:02:21.269Z,959.28
2022-11-26T06:03:21.264Z,959.36
2022-11-26T06:04:21.100Z,959.33
2022-11-26T06:05:21.059Z,959.37
2022-11-26T06:06:21.075Z,959.37
2022-11-26T06:07:21.135Z,959.41
2022-11-26T06:08:21.019Z,959.37
2022-11-26T06:09:21.036Z,959.42
2022-11-26T06:10:21.033Z,959.44
2022-11-26T06:11:20.993Z,959.42
2022-11-26T06:12:20.977Z,959.45
2022-11-26T06:13:20.972Z,959.50
2022-11-26T06:14:20.960Z,959.44
2022-11-26T06:15:20.988Z,959.45
2022-11-26T06:16:21.006Z,959.47
2022-11-26T06:17:20.929Z,959.48
2022-11-26T06:18:20.912Z,959.43
2022-11-26T06:19:20.905Z,959.44
2022-11-26T06:20:20.925Z,959.54
2022-11-26T06:21:20.884Z,959.55
2022-11-26T06:22:20.882Z,959.54
2022-11-26T06:23:20.860Z,959.56
2022-11-26T06:24:20.846Z,959.55
2022-11-26T06:25:20.951Z,959.51
2022-11-26T06:26:20.823Z,959.60
2022-11-26T06:27:20.920Z,959.60
2022-11-26T06:28:20.832Z,959.59
2022-11-26T06:29:26.337Z,959.60
2022-11-26T06:30:21.775Z,959.62
2022-11-26T06:31:20.899Z,959.62
2022-11-26T06:32:22.254Z,959.62
2022-11-26T06:33:20.753Z,959.64
2022-11-26T06:34:20.765Z,959.66
2022-11-26T06:35:20.727Z,959.69
2022-11-26T06:36:20.709Z,959.74
2022-11-26T06:37:20.702Z,959.75
2022-11-26T06:38:20.688Z,959.75
2022-11-26T06:39:20.701Z,959.69
2022-11-26T06:40:20.701Z,959.83
2022-11-26T06:41:20.681Z,959.74
2022-11-26T06:42:20.642Z,959.84
2022-11-26T06:43:20.635Z,959.81
2022-11-26T06:44:20.637Z,959.86
2022-11-26T06:45:20.614Z,959.86
2022-11-26T06:46:20.715Z,959.88
2022-11-26T06:47:20.607Z,959.88
2022-11-26T06:48:20.575Z,959.96
2022-11-26T06:49:20.571Z,959.92
2022-11-26T06:50:20.550Z,959.92
2022-11-26T06:51:20.563Z,959.92
2022-11-26T06:52:20.546Z,959.91
2022-11-26T06:53:20.520Z,960.00
2022-11-26T06:54:20.509Z,959.94
2022-11-26T06:55:20.554Z,959.96
2022-11-26T06:56:20.483Z,960.06
2022-11-26T06:57:20.475Z,960.04
2022-11-26T06:58:20.479Z,960.07
2022-11-26T06:59:20.459Z,960.04
2022-11-26T07:00:20.457Z,960.09
2022-11-26T07:01:20.743Z,960.11
2022-11-26T07:02:20.545Z,960.13
2022-11-26T07:03:24.268Z,960.14
2022-11-26T07:04:21.425Z,960.17
2022-11-26T07:05:20.405Z,960.15
2022-11-26T07:06:20.368Z,960.15
2022-11-26T07:07:20.408Z,960.24
2022-11-26T07:08:20.348Z,960.12
2022-11-26T07:09:20.363Z,960.23
2022-11-26T07:10:20.344Z,960.25
2022-11-26T07:11:20.320Z,960.29
2022-11-26T07:12:20.299Z,960.35
2022-11-26T07:13:20.302Z,960.26
2022-11-26T07:14:20.327Z,960.34
2022-11-26T07:15:20.310Z,960.26
2022-11-26T07:16:20.358Z,960.28
2022-11-26T07:17:20.243Z,960.31
2022-11-26T07:18:20.238Z,960.30
2022-11-26T07:19:20.275Z,960.29
2022-11-26T07:20:20.208Z,960.35
2022-11-26T07:21:20.202Z,960.32
2022-11-26T07:22:20.200Z,960.27
2022-11-26T07:23:20.226Z,960.39
2022-11-26T07:24:20.162Z,960.39
2022-11-26T07:25:20.155Z,960.46
2022-11-26T07:26:20.146Z,960.45
2022-11-26T07:27:20.135Z,960.49
2022-11-26T07:28:20.127Z,960.46
2022-11-26T07:29:20.131Z,960.43
2022-11-26T07:30:27.783Z,960.47
2022-11-26T07:31:20.174Z,960.50
2022-11-26T07:32:20.074Z,960.48
2022-11-26T07:33:20.078Z,960.50
2022-11-26T07:34:20.139Z,960.55
2022-11-26T07:35:20.171Z,960.58
2022-11-26T07:36:20.036Z,960.52
2022-11-26T07:37:20.023Z,960.59
2022-11-26T07:38:20.044Z,960.57
2022-11-26T07:39:20.000Z,960.54
2022-11-26T07:40:19.983Z,960.61
2022-11-26T07:41:20.013Z,960.58
2022-11-26T07:42:19.972Z,960.63
2022-11-26T07:43:19.973Z,960.59
2022-11-26T07:44:19.939Z,960.55
2022-11-26T07:45:19.963Z,960.61
2022-11-26T07:46:19.974Z,960.58
2022-11-26T07:47:19.909Z,960.57
2022-11-26T07:48:19.915Z,960.58
2022-11-26T07:49:19.888Z,960.63
2022-11-26T07:50:19.894Z,960.63
2022-11-26T07:51:19.878Z,960.62
2022-11-26T07:52:19.871Z,960.66
2022-11-26T07:53:19.856Z,960.66
2022-11-26T07:54:19.844Z,960.66
2022-11-26T07:55:19.850Z,960.72
2022-11-26T07:56:19.801Z,960.71
2022-11-26T07:57:19.799Z,960.69
2022-11-26T07:58:19.801Z,960.70
2022-11-26T07:59:19.774Z,960.70
2022-11-26T08:00:19.779Z,960.70
2022-11-26T08:01:19.817Z,960.70
2022-11-26T08:02:19.821Z,960.76
2022-11-26T08:03:19.731Z,960.72
2022-11-26T08:04:19.725Z,960.67
2022-11-26T08:05:19.725Z,960.72
2022-11-26T08:06:19.689Z,960.76
2022-11-26T08:07:25.834Z,960.76
2022-11-26T08:08:20.664Z,960.77
2022-11-26T08:09:22.171Z,960.77
2022-11-26T08:10:19.667Z,960.80
2022-11-26T08:11:19.636Z,960.79
2022-11-26T08:12:19.639Z,960.77
2022-11-26T08:13:19.616Z,960.75
2022-11-26T08:14:19.599Z,960.86
2022-11-26T08:15:19.614Z,960.82
2022-11-26T08:16:19.657Z,960.80
2022-11-26T08:17:19.584Z,960.81
2022-11-26T08:18:19.553Z,960.82
2022-11-26T08:19:19.547Z,960.84
2022-11-26T08:20:22.234Z,960.87
2022-11-26T08:21:19.561Z,960.79
2022-11-26T08:22:19.529Z,960.83
2022-11-26T08:23:19.525Z,960.88
2022-11-26T08:24:19.487Z,960.81
2022-11-26T08:25:19.480Z,960.87
2022-11-26T08:26:24.995Z,960.82
2022-11-26T08:27:20.456Z,960.93
2022-11-26T08:28:19.440Z,960.93
2022-11-26T08:29:19.440Z,960.87
2022-11-26T08:30:19.421Z,960.90
2022-11-26T08:31:19.486Z,960.87
2022-11-26T08:32:19.398Z,960.93
2022-11-26T08:33:19.434Z,960.93
2022-11-26T08:34:19.391Z,960.92
2022-11-26T08:35:19.364Z,960.87
2022-11-26T08:36:19.383Z,960.94
2022-11-26T08:37:19.339Z,960.94
2022-11-26T08:38:19.323Z,960.95
2022-11-26T08:39:19.338Z,960.89
2022-11-26T08:40:19.314Z,960.91
2022-11-26T08:41:19.317Z,960.92
2022-11-26T08:42:19.306Z,960.93
2022-11-26T08:43:19.273Z,960.93
2022-11-26T08:44:19.271Z,960.91
2022-11-26T08:45:19.250Z,960.93
2022-11-26T08:46:19.252Z,960.98
2022-11-26T08:47:19.226Z,960.99
2022-11-26T08:48:19.250Z,960.93
2022-11-26T08:49:19.323Z,960.95
2022-11-26T08:50:19.190Z,960.96
2022-11-26T08:51:19.185Z,960.99
2022-11-26T08:52:19.184Z,960.99
2022-11-26T08:53:19.393Z,961.05
2022-11-26T08:54:19.176Z,961.00
2022-11-26T08:55:23.693Z,961.02
2022-11-26T08:56:19.121Z,961.04
2022-11-26T08:57:19.143Z,961.02
2022-11-26T08:58:19.096Z,961.06
2022-11-26T08:59:19.092Z,961.05
2022-11-26T09:00:19.101Z,961.02
2022-11-26T09:01:19.159Z,961.13
2022-11-26T09:02:19.263Z,961.08
2022-11-26T09:03:19.090Z,961.10
2022-11-26T09:04:19.056Z,961.07
2022-11-26T09:05:19.027Z,961.07
2022-11-26T09:06:19.024Z,961.08
2022-11-26T09:07:19.087Z,961.15
2022-11-26T09:08:18.990Z,961.12
2022-11-26T09:09:19.021Z,961.09
2022-11-26T09:10:18.973Z,961.18
2022-11-26T09:11:19.131Z,961.13
2022-11-26T09:12:18.968Z,961.13
2022-11-26T09:13:21.210Z,961.17
2022-11-26T09:14:18.943Z,961.22
2022-11-26T09:15:18.947Z,961.21
2022-11-26T09:16:18.934Z,961.18
2022-11-26T09:17:18.900Z,961.25
2022-11-26T09:18:18.909Z,961.22
2022-11-26T09:19:18.875Z,961.22
2022-11-26T09:20:18.854Z,961.22
2022-11-26T09:21:18.847Z,961.23
2022-11-26T09:22:18.833Z,961.24
2022-11-26T09:23:18.862Z,961.25
2022-11-26T09:24:18.812Z,961.26
2022-11-26T09:25:18.804Z,961.18
2022-11-26T09:26:18.789Z,961.21
2022-11-26T09:27:18.798Z,961.31
2022-11-26T09:28:18.796Z,961.30
2022-11-26T09:29:18.796Z,961.32
2022-11-26T09:30:18.745Z,961.28
2022-11-26T09:31:18.769Z,961.28
2022-11-26T09:32:29.621Z,961.37
2022-11-26T09:33:19.725Z,961.32
2022-11-26T09:34:18.731Z,961.31
2022-11-26T09:35:18.711Z,961.32
2022-11-26T09:36:18.730Z,961.32
2022-11-26T09:37:18.669Z,961.31
2022-11-26T09:38:18.654Z,961.35
2022-11-26T09:39:18.649Z,961.33
2022-11-26T09:40:18.634Z,961.36
2022-11-26T09:41:18.663Z,961.34
2022-11-26T09:42:18.609Z,961.35
2022-11-26T09:43:18.640Z,961.35
2022-11-26T09:44:18.638Z,961.38
2022-11-26T09:45:18.608Z,961.40
2022-11-26T09:46:21.184Z,961.41
2022-11-26T09:47:18.575Z,961.42
2022-11-26T09:48:18.545Z,961.36
2022-11-26T09:49:18.532Z,961.42
2022-11-26T09:50:18.553Z,961.38
2022-11-26T09:51:18.539Z,961.39
2022-11-26T09:52:18.534Z,961.40
2022-11-26T09:53:18.509Z,961.37
2022-11-26T09:54:18.477Z,961.37
2022-11-26T09:55:18.482Z,961.37
2022-11-26T09:56:18.454Z,961.41
2022-11-26T09:57:18.439Z,961.33
2022-11-26T09:58:23.684Z,961.34
2022-11-26T09:59:19.450Z,961.34
2022-11-26T10:00:18.434Z,961.44
2022-11-26T10:01:18.517Z,961.39
2022-11-26T10:02:18.461Z,961.36
2022-11-26T10:03:18.374Z,961.37
2022-11-26T10:04:18.364Z,961.38
2022-11-26T10:05:21.520Z,961.39
2022-11-26T10:06:18.343Z,961.42
2022-11-26T10:07:18.359Z,961.47
2022-11-26T10:08:18.318Z,961.41
2022-11-26T10:09:18.323Z,961.47
2022-11-26T10:10:18.316Z,961.43
2022-11-26T10:11:18.290Z,961.48
2022-11-26T10:12:25.401Z,961.46
2022-11-26T10:13:20.063Z,961.50
2022-11-26T10:14:18.271Z,961.46
2022-11-26T10:15:18.254Z,961.48
2022-11-26T10:16:18.264Z,961.42
2022-11-26T10:17:18.222Z,961.40
2022-11-26T10:18:18.362Z,961.39
2022-11-26T10:19:18.207Z,961.40
2022-11-26T10:20:18.184Z,961.41
2022-11-26T10:21:26.966Z,961.38
2022-11-26T10:22:19.160Z,961.42
2022-11-26T10:23:18.387Z,961.43
2022-11-26T10:24:18.257Z,961.42
2022-11-26T10:25:18.122Z,961.46
2022-11-26T10:26:18.114Z,961.45
2022-11-26T10:27:18.098Z,961.45
2022-11-26T10:28:18.099Z,961.43
2022-11-26T10:29:18.080Z,961.38
2022-11-26T10:30:18.134Z,961.37
2022-11-26T10:31:18.184Z,961.44
2022-11-26T10:32:18.070Z,961.34
2022-11-26T10:33:18.031Z,961.34
2022-11-26T10:34:18.038Z,961.36
2022-11-26T10:35:18.028Z,961.33
2022-11-26T10:36:18.002Z,961.38
2022-11-26T10:37:18.010Z,961.34
2022-11-26T10:38:17.980Z,961.36
2022-11-26T10:39:17.961Z,961.30
2022-11-26T10:40:17.975Z,961.32
2022-11-26T10:41:17.942Z,961.34
2022-11-26T10:42:17.938Z,961.31
2022-11-26T10:43:17.913Z,961.34
2022-11-26T10:44:17.908Z,961.38
2022-11-26T10:45:17.931Z,961.35
2022-11-26T10:46:18.003Z,961.38
2022-11-26T10:47:17.893Z,961.43
2022-11-26T10:48:17.883Z,961.40
2022-11-26T10:49:17.852Z,961.38
2022-11-26T10:50:46.526Z,961.38
2022-11-26T10:51:23.730Z,961.41
2022-11-26T10:52:18.816Z,961.34
2022-11-26T10:53:17.806Z,961.37
2022-11-26T10:54:17.813Z,961.40
2022-11-26T10:55:17.806Z,961.39
2022-11-26T10:56:17.776Z,961.38
2022-11-26T10:57:17.758Z,961.39
2022-11-26T10:58:17.752Z,961.42
2022-11-26T10:59:17.737Z,961.48
2022-11-26T11:00:17.928Z,961.43
2022-11-26T11:01:17.771Z,961.39
2022-11-26T11:02:17.728Z,961.42
2022-11-26T11:03:17.711Z,961.40
2022-11-26T11:04:17.855Z,961.39
2022-11-26T11:05:18.227Z,961.42
2022-11-26T11:06:17.696Z,961.43
2022-11-26T11:07:17.669Z,961.38
2022-11-26T11:08:17.633Z,961.44
2022-11-26T11:09:17.626Z,961.47
2022-11-26T11:10:17.615Z,961.46
2022-11-26T11:11:17.623Z,961.46
2022-11-26T11:12:17.620Z,961.47
2022-11-26T11:13:17.576Z,961.42
2022-11-26T11:14:17.566Z,961.47
2022-11-26T11:15:17.553Z,961.46
2022-11-26T11:16:17.651Z,961.46
2022-11-26T11:17:17.535Z,961.47
2022-11-26T11:18:17.537Z,961.50
2022-11-26T11:19:17.524Z,961.54
2022-11-26T11:20:17.583Z,961.48
2022-11-26T11:21:17.489Z,961.53
2022-11-26T11:22:17.495Z,961.53
2022-11-26T11:23:17.465Z,961.52
2022-11-26T11:24:17.488Z,961.51
2022-11-26T11:25:17.458Z,961.54
2022-11-26T11:26:17.432Z,961.59
2022-11-26T11:27:17.413Z,961.55
2022-11-26T11:28:17.411Z,961.56
2022-11-26T11:29:17.391Z,961.58
2022-11-26T11:30:17.419Z,961.61
2022-11-26T11:31:17.398Z,961.58
2022-11-26T11:32:17.362Z,961.60
2022-11-26T11:33:17.392Z,961.63
2022-11-26T11:34:17.345Z,961.65
2022-11-26T11:35:17.381Z,961.67
2022-11-26T11:36:17.331Z,961.68
2022-11-26T11:37:17.298Z,961.73
2022-11-26T11:38:17.499Z,961.67
2022-11-26T11:39:17.277Z,961.68
2022-11-26T11:40:17.565Z,961.69
2022-11-26T11:41:17.283Z,961.68
2022-11-26T11:42:17.266Z,961.69
2022-11-26T11:43:17.403Z,961.67
2022-11-26T11:44:17.276Z,961.70
2022-11-26T11:45:17.219Z,961.66
2022-11-26T11:46:17.246Z,961.73
2022-11-26T11:47:17.206Z,961.69
2022-11-26T11:48:17.179Z,961.67
2022-11-26T11:49:17.180Z,961.68
2022-11-26T11:50:17.184Z,961.66
2022-11-26T11:51:17.178Z,961.67
2022-11-26T11:52:17.138Z,961.63
2022-11-26T11:53:17.139Z,961.63
2022-11-26T11:54:17.122Z,961.54
2022-11-26T11:55:17.094Z,961.54
2022-11-26T11:56:17.102Z,961.60
2022-11-26T11:57:17.070Z,961.56
2022-11-26T11:58:17.104Z,961.65
2022-11-26T11:59:17.054Z,961.61
2022-11-26T12:00:17.054Z,961.59
2022-11-26T12:01:17.033Z,961.65
2022-11-26T12:02:17.115Z,961.67
2022-11-26T12:03:17.013Z,961.67
2022-11-26T12:04:19.562Z,961.69
2022-11-26T12:05:17.309Z,961.74
2022-11-26T12:07:37.264Z,961.70
2022-11-26T12:08:37.150Z,961.70
2022-11-26T12:09:37.129Z,961.70
2022-11-26T12:10:37.134Z,961.72
2022-11-26T12:11:37.137Z,961.74
2022-11-26T12:12:37.116Z,961.70
2022-11-26T12:13:37.084Z,961.70
2022-11-26T12:14:37.085Z,961.69
2022-11-26T12:15:37.088Z,961.64
2022-11-26T12:16:37.065Z,961.72
2022-11-26T12:17:37.054Z,961.70
2022-11-26T12:18:37.023Z,961.67
2022-11-26T12:19:37.003Z,961.69
2022-11-26T12:20:36.994Z,961.75
2022-11-26T12:21:36.996Z,961.80
2022-11-26T12:22:36.971Z,961.76
2022-11-26T12:23:36.972Z,961.74
2022-11-26T12:24:37.353Z,961.82
2022-11-26T12:25:37.411Z,961.86
2022-11-26T12:26:36.948Z,961.78
2022-11-26T12:27:36.907Z,961.78
2022-11-26T12:28:36.905Z,961.82
2022-11-26T12:29:36.925Z,961.80